Terminal Aerodrome Forecast
Issued by NWS

Home | Current Version | Previous Version | Text Only | Print | Product List | Glossary On
Versions: 1 2 3 4 5 6 7 8 9 10 11 12 13 14 15 16 17 18 19 20 21 22
000
FTUS46 KMFR 031231 AAA
TAFOTH
TAF AMD
KOTH 031231Z 0313/0412 01004KT 1/2SM FG OVC002
     FM031600 36009KT 6SM BR SCT008
     FM031700 35017G24KT P6SM SKC
     FM040400 36008KT P6SM OVC012=

USA.gov is the U.S. government's official web portal to all federal, state and local government web resources and services.